sensor_id;sensor_type;location;lat;lon;timestamp;temperature;humidity
14733;DHT22;7457;50.960;6.830;2023-07-16T00:00:31;17.80;85.40
14733;DHT22;7457;50.960;6.830;2023-07-16T00:02:57;17.80;85.30
14733;DHT22;7457;50.960;6.830;2023-07-16T00:05:23;17.80;85.30
14733;DHT22;7457;50.960;6.830;2023-07-16T00:07:48;17.70;85.30
14733;DHT22;7457;50.960;6.830;2023-07-16T00:10:14;17.70;85.80
14733;DHT22;7457;50.960;6.830;2023-07-16T00:12:40;17.70;85.70
14733;DHT22;7457;50.960;6.830;2023-07-16T00:15:06;17.70;85.70
14733;DHT22;7457;50.960;6.830;2023-07-16T00:17:33;17.70;85.80
14733;DHT22;7457;50.960;6.830;2023-07-16T00:19:59;17.70;85.70
14733;DHT22;7457;50.960;6.830;2023-07-16T00:22:25;17.70;85.40
14733;DHT22;7457;50.960;6.830;2023-07-16T00:24:50;17.70;85.20
14733;DHT22;7457;50.960;6.830;2023-07-16T00:27:16;17.60;85.10
14733;DHT22;7457;50.960;6.830;2023-07-16T00:29:41;17.60;85.20
14733;DHT22;7457;50.960;6.830;2023-07-16T00:32:07;17.50;85.30
14733;DHT22;7457;50.960;6.830;2023-07-16T00:34:33;17.40;85.40
14733;DHT22;7457;50.960;6.830;2023-07-16T00:36:58;17.40;85.70
14733;DHT22;7457;50.960;6.830;2023-07-16T00:39:29;17.30;86.00
14733;DHT22;7457;50.960;6.830;2023-07-16T00:41:56;17.30;86.20
14733;DHT22;7457;50.960;6.830;2023-07-16T00:44:22;17.30;86.30
14733;DHT22;7457;50.960;6.830;2023-07-16T00:46:49;17.30;86.60
14733;DHT22;7457;50.960;6.830;2023-07-16T00:49:14;17.30;86.60
14733;DHT22;7457;50.960;6.830;2023-07-16T00:51:40;17.20;86.70
14733;DHT22;7457;50.960;6.830;2023-07-16T00:54:08;17.20;86.50
14733;DHT22;7457;50.960;6.830;2023-07-16T00:56:35;17.20;86.40
14733;DHT22;7457;50.960;6.830;2023-07-16T00:59:02;17.20;86.30
14733;DHT22;7457;50.960;6.830;2023-07-16T01:01:28;17.10;86.30
14733;DHT22;7457;50.960;6.830;2023-07-16T01:03:53;17.10;86.40
14733;DHT22;7457;50.960;6.830;2023-07-16T01:06:41;17.10;86.50
14733;DHT22;7457;50.960;6.830;2023-07-16T01:09:16;17.10;86.50
14733;DHT22;7457;50.960;6.830;2023-07-16T01:11:43;17.20;86.40
14733;DHT22;7457;50.960;6.830;2023-07-16T01:14:10;17.20;86.30
14733;DHT22;7457;50.960;6.830;2023-07-16T01:16:36;17.20;86.10
14733;DHT22;7457;50.960;6.830;2023-07-16T01:19:02;17.20;86.00
14733;DHT22;7457;50.960;6.830;2023-07-16T01:21:55;17.20;85.80
14733;DHT22;7457;50.960;6.830;2023-07-16T01:30:12;17.10;85.40
14733;DHT22;7457;50.960;6.830;2023-07-16T01:32:42;17.10;85.40
14733;DHT22;7457;50.960;6.830;2023-07-16T01:35:08;17.10;85.30
14733;DHT22;7457;50.960;6.830;2023-07-16T01:37:34;17.10;85.30
14733;DHT22;7457;50.960;6.830;2023-07-16T01:40:00;17.00;85.30
14733;DHT22;7457;50.960;6.830;2023-07-16T01:42:26;17.00;85.30
14733;DHT22;7457;50.960;6.830;2023-07-16T01:44:51;17.00;85.30
14733;DHT22;7457;50.960;6.830;2023-07-16T01:50:03;16.90;85.20
14733;DHT22;7457;50.960;6.830;2023-07-16T01:52:29;16.90;85.10
14733;DHT22;7457;50.960;6.830;2023-07-16T01:54:55;16.90;85.10
14733;DHT22;7457;50.960;6.830;2023-07-16T01:57:20;16.90;85.00
14733;DHT22;7457;50.960;6.830;2023-07-16T01:59:46;16.90;84.90
14733;DHT22;7457;50.960;6.830;2023-07-16T02:02:12;16.90;84.70
14733;DHT22;7457;50.960;6.830;2023-07-16T02:04:37;16.90;84.50
14733;DHT22;7457;50.960;6.830;2023-07-16T02:07:03;16.80;84.40
14733;DHT22;7457;50.960;6.830;2023-07-16T02:09:29;16.80;84.30
14733;DHT22;7457;50.960;6.830;2023-07-16T02:11:55;16.80;84.30
14733;DHT22;7457;50.960;6.830;2023-07-16T02:14:20;16.70;84.30
14733;DHT22;7457;50.960;6.830;2023-07-16T02:16:46;16.60;84.30
14733;DHT22;7457;50.960;6.830;2023-07-16T02:19:11;16.60;84.40
14733;DHT22;7457;50.960;6.830;2023-07-16T02:21:37;16.50;84.40
14733;DHT22;7457;50.960;6.830;2023-07-16T02:24:03;16.40;84.40
14733;DHT22;7457;50.960;6.830;2023-07-16T02:26:29;16.30;84.40
14733;DHT22;7457;50.960;6.830;2023-07-16T02:28:54;16.30;84.50
14733;DHT22;7457;50.960;6.830;2023-07-16T02:31:20;16.20;84.70
14733;DHT22;7457;50.960;6.830;2023-07-16T02:33:45;16.20;84.70
14733;DHT22;7457;50.960;6.830;2023-07-16T02:36:11;16.10;84.70
14733;DHT22;7457;50.960;6.830;2023-07-16T02:38:37;16.10;84.60
14733;DHT22;7457;50.960;6.830;2023-07-16T02:41:02;16.00;84.60
14733;DHT22;7457;50.960;6.830;2023-07-16T02:43:28;16.00;84.80
14733;DHT22;7457;50.960;6.830;2023-07-16T02:45:54;15.90;84.80
14733;DHT22;7457;50.960;6.830;2023-07-16T02:48:19;15.90;84.80
14733;DHT22;7457;50.960;6.830;2023-07-16T02:50:45;15.90;84.70
14733;DHT22;7457;50.960;6.830;2023-07-16T02:53:10;15.90;84.60
14733;DHT22;7457;50.960;6.830;2023-07-16T02:55:36;15.80;84.60
14733;DHT22;7457;50.960;6.830;2023-07-16T02:58:02;15.90;84.50
14733;DHT22;7457;50.960;6.830;2023-07-16T03:00:31;15.80;84.40
14733;DHT22;7457;50.960;6.830;2023-07-16T03:02:57;15.80;84.20
14733;DHT22;7457;50.960;6.830;2023-07-16T03:05:24;15.80;84.10
14733;DHT22;7457;50.960;6.830;2023-07-16T03:07:50;15.80;84.10
14733;DHT22;7457;50.960;6.830;2023-07-16T03:10:15;15.80;84.00
14733;DHT22;7457;50.960;6.830;2023-07-16T03:12:41;15.70;83.90
14733;DHT22;7457;50.960;6.830;2023-07-16T03:15:07;15.70;83.80
14733;DHT22;7457;50.960;6.830;2023-07-16T03:17:33;15.70;83.70
14733;DHT22;7457;50.960;6.830;2023-07-16T03:19:59;15.70;83.60
14733;DHT22;7457;50.960;6.830;2023-07-16T03:22:24;15.70;83.40
14733;DHT22;7457;50.960;6.830;2023-07-16T03:24:50;15.80;83.30
14733;DHT22;7457;50.960;6.830;2023-07-16T03:27:16;15.80;83.10
14733;DHT22;7457;50.960;6.830;2023-07-16T03:29:41;15.80;82.90
14733;DHT22;7457;50.960;6.830;2023-07-16T03:32:07;15.80;82.80
14733;DHT22;7457;50.960;6.830;2023-07-16T03:34:33;15.80;82.70
14733;DHT22;7457;50.960;6.830;2023-07-16T03:36:58;15.80;82.60
14733;DHT22;7457;50.960;6.830;2023-07-16T03:39:26;15.90;82.50
14733;DHT22;7457;50.960;6.830;2023-07-16T03:41:52;15.90;82.40
14733;DHT22;7457;50.960;6.830;2023-07-16T03:44:17;15.90;82.20
14733;DHT22;7457;50.960;6.830;2023-07-16T03:46:43;15.90;82.10
14733;DHT22;7457;50.960;6.830;2023-07-16T03:49:09;15.90;81.90
14733;DHT22;7457;50.960;6.830;2023-07-16T03:51:34;16.00;81.80
14733;DHT22;7457;50.960;6.830;2023-07-16T03:54:00;16.00;81.60
14733;DHT22;7457;50.960;6.830;2023-07-16T03:56:26;16.10;81.40
14733;DHT22;7457;50.960;6.830;2023-07-16T03:58:51;16.20;80.90
14733;DHT22;7457;50.960;6.830;2023-07-16T04:01:17;16.20;80.70
14733;DHT22;7457;50.960;6.830;2023-07-16T04:03:42;16.40;80.40
14733;DHT22;7457;50.960;6.830;2023-07-16T04:06:09;16.40;80.00
14733;DHT22;7457;50.960;6.830;2023-07-16T04:08:35;16.50;79.50
14733;DHT22;7457;50.960;6.830;2023-07-16T04:11:02;16.60;79.40
14733;DHT22;7457;50.960;6.830;2023-07-16T04:13:28;16.60;79.20
14733;DHT22;7457;50.960;6.830;2023-07-16T04:15:53;16.70;79.10
14733;DHT22;7457;50.960;6.830;2023-07-16T04:18:24;16.70;78.90
14733;DHT22;7457;50.960;6.830;2023-07-16T04:20:51;16.70;78.90
14733;DHT22;7457;50.960;6.830;2023-07-16T04:23:16;16.80;78.80
14733;DHT22;7457;50.960;6.830;2023-07-16T04:25:42;16.80;78.60
14733;DHT22;7457;50.960;6.830;2023-07-16T04:28:09;16.80;79.00
14733;DHT22;7457;50.960;6.830;2023-07-16T04:30:34;17.00;79.10
14733;DHT22;7457;50.960;6.830;2023-07-16T04:33:00;17.20;79.00
14733;DHT22;7457;50.960;6.830;2023-07-16T04:35:26;17.30;79.20
14733;DHT22;7457;50.960;6.830;2023-07-16T04:37:51;17.60;79.30
14733;DHT22;7457;50.960;6.830;2023-07-16T04:40:17;17.80;78.50
14733;DHT22;7457;50.960;6.830;2023-07-16T04:42:43;18.00;78.90
14733;DHT22;7457;50.960;6.830;2023-07-16T04:45:08;18.20;78.60
14733;DHT22;7457;50.960;6.830;2023-07-16T04:47:34;18.40;76.90
14733;DHT22;7457;50.960;6.830;2023-07-16T04:49:59;18.60;77.40
14733;DHT22;7457;50.960;6.830;2023-07-16T04:52:25;18.90;77.00
14733;DHT22;7457;50.960;6.830;2023-07-16T04:54:51;19.30;76.40
14733;DHT22;7457;50.960;6.830;2023-07-16T04:57:19;19.60;76.00
14733;DHT22;7457;50.960;6.830;2023-07-16T04:59:45;20.00;74.60
14733;DHT22;7457;50.960;6.830;2023-07-16T05:02:10;20.10;73.90
14733;DHT22;7457;50.960;6.830;2023-07-16T05:04:36;20.00;73.30
14733;DHT22;7457;50.960;6.830;2023-07-16T05:07:02;19.90;73.00
14733;DHT22;7457;50.960;6.830;2023-07-16T05:09:28;19.70;73.10
14733;DHT22;7457;50.960;6.830;2023-07-16T05:11:54;19.60;73.50
14733;DHT22;7457;50.960;6.830;2023-07-16T05:14:20;19.50;73.50
14733;DHT22;7457;50.960;6.830;2023-07-16T05:16:45;19.40;73.60
14733;DHT22;7457;50.960;6.830;2023-07-16T05:19:11;19.40;74.10
14733;DHT22;7457;50.960;6.830;2023-07-16T05:21:37;19.60;74.70
14733;DHT22;7457;50.960;6.830;2023-07-16T05:24:03;20.00;74.40
14733;DHT22;7457;50.960;6.830;2023-07-16T05:26:28;20.40;72.50
14733;DHT22;7457;50.960;6.830;2023-07-16T05:28:54;20.50;71.30
14733;DHT22;7457;50.960;6.830;2023-07-16T05:31:20;20.50;71.60
14733;DHT22;7457;50.960;6.830;2023-07-16T05:36:12;20.20;70.80
14733;DHT22;7457;50.960;6.830;2023-07-16T05:38:37;20.00;71.00
14733;DHT22;7457;50.960;6.830;2023-07-16T05:41:03;19.80;71.20
14733;DHT22;7457;50.960;6.830;2023-07-16T05:43:30;19.60;70.40
14733;DHT22;7457;50.960;6.830;2023-07-16T05:45:56;19.50;70.80
14733;DHT22;7457;50.960;6.830;2023-07-16T05:48:23;19.40;70.70
14733;DHT22;7457;50.960;6.830;2023-07-16T05:50:49;19.40;70.80
14733;DHT22;7457;50.960;6.830;2023-07-16T05:53:14;19.40;70.90
14733;DHT22;7457;50.960;6.830;2023-07-16T05:55:40;19.40;71.10
14733;DHT22;7457;50.960;6.830;2023-07-16T05:58:08;19.40;71.00
14733;DHT22;7457;50.960;6.830;2023-07-16T06:00:35;19.40;71.30
14733;DHT22;7457;50.960;6.830;2023-07-16T06:03:02;19.40;70.60
14733;DHT22;7457;50.960;6.830;2023-07-16T06:05:28;19.40;70.90
14733;DHT22;7457;50.960;6.830;2023-07-16T06:07:58;19.50;70.00
14733;DHT22;7457;50.960;6.830;2023-07-16T06:10:24;19.50;69.20
14733;DHT22;7457;50.960;6.830;2023-07-16T06:12:52;19.60;68.40
14733;DHT22;7457;50.960;6.830;2023-07-16T06:15:18;19.50;68.20
14733;DHT22;7457;50.960;6.830;2023-07-16T06:17:43;19.50;68.70
14733;DHT22;7457;50.960;6.830;2023-07-16T06:20:09;19.50;68.60
14733;DHT22;7457;50.960;6.830;2023-07-16T06:22:35;19.50;68.90
14733;DHT22;7457;50.960;6.830;2023-07-16T06:25:01;19.60;69.10
14733;DHT22;7457;50.960;6.830;2023-07-16T06:27:26;19.60;68.10
14733;DHT22;7457;50.960;6.830;2023-07-16T06:29:52;19.70;67.70
14733;DHT22;7457;50.960;6.830;2023-07-16T06:32:17;19.70;67.60
14733;DHT22;7457;50.960;6.830;2023-07-16T06:34:43;19.60;67.40
14733;DHT22;7457;50.960;6.830;2023-07-16T06:37:09;19.60;67.40
14733;DHT22;7457;50.960;6.830;2023-07-16T06:39:35;19.60;67.70
14733;DHT22;7457;50.960;6.830;2023-07-16T06:42:00;19.60;67.70
14733;DHT22;7457;50.960;6.830;2023-07-16T06:44:26;19.60;67.90
14733;DHT22;7457;50.960;6.830;2023-07-16T06:46:52;19.90;66.90
14733;DHT22;7457;50.960;6.830;2023-07-16T06:49:18;20.20;66.30
14733;DHT22;7457;50.960;6.830;2023-07-16T06:51:44;20.60;65.00
14733;DHT22;7457;50.960;6.830;2023-07-16T06:54:09;20.90;62.90
14733;DHT22;7457;50.960;6.830;2023-07-16T06:56:35;20.90;62.70
14733;DHT22;7457;50.960;6.830;2023-07-16T06:59:01;20.80;62.50
14733;DHT22;7457;50.960;6.830;2023-07-16T07:01:26;20.70;62.30
14733;DHT22;7457;50.960;6.830;2023-07-16T07:03:53;20.60;62.50
14733;DHT22;7457;50.960;6.830;2023-07-16T07:06:19;20.40;62.70
14733;DHT22;7457;50.960;6.830;2023-07-16T07:08:46;20.40;63.20
14733;DHT22;7457;50.960;6.830;2023-07-16T07:11:12;20.40;63.40
14733;DHT22;7457;50.960;6.830;2023-07-16T07:13:38;20.50;63.00
14733;DHT22;7457;50.960;6.830;2023-07-16T07:16:03;20.50;61.90
14733;DHT22;7457;50.960;6.830;2023-07-16T07:18:29;20.40;61.80
14733;DHT22;7457;50.960;6.830;2023-07-16T07:20:55;20.50;62.10
14733;DHT22;7457;50.960;6.830;2023-07-16T07:23:20;20.70;61.60
14733;DHT22;7457;50.960;6.830;2023-07-16T07:25:49;20.90;61.20
14733;DHT22;7457;50.960;6.830;2023-07-16T07:28:16;20.90;60.90
14733;DHT22;7457;50.960;6.830;2023-07-16T07:30:42;20.90;61.00
14733;DHT22;7457;50.960;6.830;2023-07-16T07:33:07;20.80;60.60
14733;DHT22;7457;50.960;6.830;2023-07-16T07:35:33;20.80;60.90
14733;DHT22;7457;50.960;6.830;2023-07-16T07:37:59;20.90;60.80
14733;DHT22;7457;50.960;6.830;2023-07-16T07:40:25;20.90;60.80
14733;DHT22;7457;50.960;6.830;2023-07-16T07:42:51;20.90;60.90
14733;DHT22;7457;50.960;6.830;2023-07-16T07:45:17;20.90;60.50
14733;DHT22;7457;50.960;6.830;2023-07-16T07:47:43;21.00;60.50
14733;DHT22;7457;50.960;6.830;2023-07-16T07:50:09;21.10;60.30
14733;DHT22;7457;50.960;6.830;2023-07-16T07:52:34;21.20;59.50
14733;DHT22;7457;50.960;6.830;2023-07-16T07:55:00;21.30;59.30
14733;DHT22;7457;50.960;6.830;2023-07-16T07:57:25;21.40;58.90
14733;DHT22;7457;50.960;6.830;2023-07-16T07:59:51;21.50;58.70
14733;DHT22;7457;50.960;6.830;2023-07-16T08:02:21;21.60;56.80
14733;DHT22;7457;50.960;6.830;2023-07-16T08:04:52;21.60;58.00
14733;DHT22;7457;50.960;6.830;2023-07-16T08:07:18;21.70;57.80
14733;DHT22;7457;50.960;6.830;2023-07-16T08:09:44;21.80;56.30
14733;DHT22;7457;50.960;6.830;2023-07-16T08:12:10;21.80;55.80
14733;DHT22;7457;50.960;6.830;2023-07-16T08:14:35;21.80;56.90
14733;DHT22;7457;50.960;6.830;2023-07-16T08:17:01;21.70;56.80
14733;DHT22;7457;50.960;6.830;2023-07-16T08:19:27;21.70;56.20
14733;DHT22;7457;50.960;6.830;2023-07-16T08:21:52;21.90;57.40
14733;DHT22;7457;50.960;6.830;2023-07-16T08:24:18;21.80;56.00
14733;DHT22;7457;50.960;6.830;2023-07-16T08:26:45;21.80;55.10
14733;DHT22;7457;50.960;6.830;2023-07-16T08:29:10;21.80;55.50
14733;DHT22;7457;50.960;6.830;2023-07-16T08:31:36;21.90;57.10
14733;DHT22;7457;50.960;6.830;2023-07-16T08:34:02;22.00;57.20
14733;DHT22;7457;50.960;6.830;2023-07-16T08:36:29;22.20;56.80
14733;DHT22;7457;50.960;6.830;2023-07-16T08:38:54;22.50;55.70
14733;DHT22;7457;50.960;6.830;2023-07-16T08:41:20;22.70;56.00
14733;DHT22;7457;50.960;6.830;2023-07-16T08:43:46;23.00;55.40
14733;DHT22;7457;50.960;6.830;2023-07-16T08:46:15;23.30;55.10
14733;DHT22;7457;50.960;6.830;2023-07-16T08:48:41;23.60;53.60
14733;DHT22;7457;50.960;6.830;2023-07-16T08:51:07;24.00;53.40
14733;DHT22;7457;50.960;6.830;2023-07-16T08:53:34;24.30;52.20
14733;DHT22;7457;50.960;6.830;2023-07-16T08:56:00;24.70;52.60
14733;DHT22;7457;50.960;6.830;2023-07-16T08:58:28;25.10;51.60
14733;DHT22;7457;50.960;6.830;2023-07-16T09:00:56;25.40;50.80
14733;DHT22;7457;50.960;6.830;2023-07-16T09:03:22;25.40;50.90
14733;DHT22;7457;50.960;6.830;2023-07-16T09:05:47;25.20;50.80
14733;DHT22;7457;50.960;6.830;2023-07-16T09:08:14;25.40;51.00
14733;DHT22;7457;50.960;6.830;2023-07-16T09:10:43;25.80;50.30
14733;DHT22;7457;50.960;6.830;2023-07-16T09:13:09;26.20;48.90
14733;DHT22;7457;50.960;6.830;2023-07-16T09:15:35;26.40;46.20
14733;DHT22;7457;50.960;6.830;2023-07-16T09:18:03;26.40;47.10
14733;DHT22;7457;50.960;6.830;2023-07-16T09:20:31;26.60;47.80
14733;DHT22;7457;50.960;6.830;2023-07-16T09:22:57;26.60;45.40
14733;DHT22;7457;50.960;6.830;2023-07-16T09:25:30;26.50;48.60
14733;DHT22;7457;50.960;6.830;2023-07-16T09:27:58;26.40;48.70
14733;DHT22;7457;50.960;6.830;2023-07-16T09:30:24;26.30;46.10
14733;DHT22;7457;50.960;6.830;2023-07-16T09:32:49;25.90;46.30
14733;DHT22;7457;50.960;6.830;2023-07-16T09:35:16;25.30;46.40
14733;DHT22;7457;50.960;6.830;2023-07-16T09:37:43;24.60;48.10
14733;DHT22;7457;50.960;6.830;2023-07-16T09:40:11;24.30;51.10
14733;DHT22;7457;50.960;6.830;2023-07-16T09:42:42;24.90;50.50
14733;DHT22;7457;50.960;6.830;2023-07-16T09:45:16;26.00;50.50
14733;DHT22;7457;50.960;6.830;2023-07-16T09:47:42;26.90;46.80
14733;DHT22;7457;50.960;6.830;2023-07-16T09:50:08;27.60;45.30
14733;DHT22;7457;50.960;6.830;2023-07-16T09:52:34;27.40;44.00
14733;DHT22;7457;50.960;6.830;2023-07-16T09:55:03;27.10;45.20
14733;DHT22;7457;50.960;6.830;2023-07-16T09:57:35;26.80;45.70
14733;DHT22;7457;50.960;6.830;2023-07-16T10:00:05;26.80;48.60
14733;DHT22;7457;50.960;6.830;2023-07-16T10:02:34;27.00;45.30
14733;DHT22;7457;50.960;6.830;2023-07-16T10:05:17;26.70;44.60
14733;DHT22;7457;50.960;6.830;2023-07-16T10:07:50;26.20;45.00
14733;DHT22;7457;50.960;6.830;2023-07-16T10:10:16;25.50;45.90
14733;DHT22;7457;50.960;6.830;2023-07-16T10:12:53;25.00;47.00
14733;DHT22;7457;50.960;6.830;2023-07-16T10:15:25;24.60;47.80
14733;DHT22;7457;50.960;6.830;2023-07-16T10:17:52;24.40;48.30
14733;DHT22;7457;50.960;6.830;2023-07-16T10:20:28;24.70;49.70
14733;DHT22;7457;50.960;6.830;2023-07-16T10:22:54;25.30;47.60
14733;DHT22;7457;50.960;6.830;2023-07-16T10:27:47;25.90;47.30
14733;DHT22;7457;50.960;6.830;2023-07-16T10:30:13;26.10;46.90
14733;DHT22;7457;50.960;6.830;2023-07-16T10:32:39;26.00;46.70
14733;DHT22;7457;50.960;6.830;2023-07-16T10:35:06;26.20;46.50
14733;DHT22;7457;50.960;6.830;2023-07-16T10:37:34;26.40;46.10
14733;DHT22;7457;50.960;6.830;2023-07-16T10:40:00;26.30;44.90
14733;DHT22;7457;50.960;6.830;2023-07-16T10:42:27;26.10;45.80
14733;DHT22;7457;50.960;6.830;2023-07-16T10:44:59;25.70;47.00
14733;DHT22;7457;50.960;6.830;2023-07-16T10:49:55;25.40;47.10
14733;DHT22;7457;50.960;6.830;2023-07-16T10:52:22;25.30;47.60
14733;DHT22;7457;50.960;6.830;2023-07-16T10:54:48;25.10;47.70
14733;DHT22;7457;50.960;6.830;2023-07-16T10:57:15;25.00;47.60
14733;DHT22;7457;50.960;6.830;2023-07-16T10:59:42;24.80;47.50
14733;DHT22;7457;50.960;6.830;2023-07-16T11:02:14;24.60;47.30
14733;DHT22;7457;50.960;6.830;2023-07-16T11:04:40;24.40;47.50
14733;DHT22;7457;50.960;6.830;2023-07-16T11:07:10;24.60;50.40
14733;DHT22;7457;50.960;6.830;2023-07-16T11:09:46;24.80;48.60
14733;DHT22;7457;50.960;6.830;2023-07-16T11:12:14;25.40;48.80
14733;DHT22;7457;50.960;6.830;2023-07-16T11:14:58;25.80;50.50
14733;DHT22;7457;50.960;6.830;2023-07-16T11:17:24;26.00;46.30
14733;DHT22;7457;50.960;6.830;2023-07-16T11:19:51;25.80;46.30
14733;DHT22;7457;50.960;6.830;2023-07-16T11:22:18;25.50;46.70
14733;DHT22;7457;50.960;6.830;2023-07-16T11:24:45;25.20;47.90
14733;DHT22;7457;50.960;6.830;2023-07-16T11:27:26;25.00;47.30
14733;DHT22;7457;50.960;6.830;2023-07-16T11:29:55;24.90;47.00
14733;DHT22;7457;50.960;6.830;2023-07-16T11:32:34;24.70;47.10
14733;DHT22;7457;50.960;6.830;2023-07-16T11:35:05;24.60;47.30
14733;DHT22;7457;50.960;6.830;2023-07-16T11:37:32;24.40;47.70
14733;DHT22;7457;50.960;6.830;2023-07-16T11:40:00;24.30;48.50
14733;DHT22;7457;50.960;6.830;2023-07-16T11:44:55;24.70;51.60
14733;DHT22;7457;50.960;6.830;2023-07-16T11:47:21;25.50;48.10
14733;DHT22;7457;50.960;6.830;2023-07-16T11:49:51;25.90;47.10
14733;DHT22;7457;50.960;6.830;2023-07-16T11:52:21;26.00;46.40
14733;DHT22;7457;50.960;6.830;2023-07-16T11:54:48;25.90;48.80
14733;DHT22;7457;50.960;6.830;2023-07-16T11:57:14;26.00;46.50
14733;DHT22;7457;50.960;6.830;2023-07-16T11:59:40;26.00;45.50
14733;DHT22;7457;50.960;6.830;2023-07-16T12:02:06;25.70;44.80
14733;DHT22;7457;50.960;6.830;2023-07-16T12:04:32;25.40;45.90
14733;DHT22;7457;50.960;6.830;2023-07-16T12:06:57;25.10;46.70
14733;DHT22;7457;50.960;6.830;2023-07-16T12:09:23;24.90;47.20
14733;DHT22;7457;50.960;6.830;2023-07-16T12:14:15;25.00;49.10
14733;DHT22;7457;50.960;6.830;2023-07-16T12:16:41;25.20;47.30
14733;DHT22;7457;50.960;6.830;2023-07-16T12:19:08;25.20;47.10
14733;DHT22;7457;50.960;6.830;2023-07-16T12:21:34;25.10;47.10
14733;DHT22;7457;50.960;6.830;2023-07-16T12:24:00;25.00;46.60
14733;DHT22;7457;50.960;6.830;2023-07-16T12:26:25;25.00;46.30
14733;DHT22;7457;50.960;6.830;2023-07-16T12:28:51;24.90;46.90
14733;DHT22;7457;50.960;6.830;2023-07-16T12:31:16;24.80;47.60
14733;DHT22;7457;50.960;6.830;2023-07-16T12:33:43;24.90;47.70
14733;DHT22;7457;50.960;6.830;2023-07-16T12:36:09;25.20;48.30
14733;DHT22;7457;50.960;6.830;2023-07-16T12:38:35;25.30;46.20
14733;DHT22;7457;50.960;6.830;2023-07-16T12:41:00;25.20;46.20
14733;DHT22;7457;50.960;6.830;2023-07-16T12:43:26;25.10;48.50
14733;DHT22;7457;50.960;6.830;2023-07-16T12:45:52;25.20;48.80
14733;DHT22;7457;50.960;6.830;2023-07-16T12:48:17;25.50;47.00
14733;DHT22;7457;50.960;6.830;2023-07-16T12:50:43;25.70;48.30
14733;DHT22;7457;50.960;6.830;2023-07-16T12:53:09;25.90;45.70
14733;DHT22;7457;50.960;6.830;2023-07-16T12:55:35;25.80;45.20
14733;DHT22;7457;50.960;6.830;2023-07-16T12:58:00;25.60;45.40
14733;DHT22;7457;50.960;6.830;2023-07-16T13:00:26;25.40;45.50
14733;DHT22;7457;50.960;6.830;2023-07-16T13:02:51;25.20;46.00
14733;DHT22;7457;50.960;6.830;2023-07-16T13:05:17;25.10;46.80
14733;DHT22;7457;50.960;6.830;2023-07-16T13:07:45;25.00;47.10
14733;DHT22;7457;50.960;6.830;2023-07-16T13:10:11;25.10;47.40
14733;DHT22;7457;50.960;6.830;2023-07-16T13:12:36;25.30;48.00
14733;DHT22;7457;50.960;6.830;2023-07-16T13:15:02;25.40;46.20
14733;DHT22;7457;50.960;6.830;2023-07-16T13:17:28;25.40;45.80
14733;DHT22;7457;50.960;6.830;2023-07-16T13:19:53;25.40;46.20
14733;DHT22;7457;50.960;6.830;2023-07-16T13:22:19;25.30;46.90
14733;DHT22;7457;50.960;6.830;2023-07-16T13:24:45;25.30;46.40
14733;DHT22;7457;50.960;6.830;2023-07-16T13:27:20;25.20;45.60
14733;DHT22;7457;50.960;6.830;2023-07-16T13:29:46;25.00;45.40
14733;DHT22;7457;50.960;6.830;2023-07-16T13:32:12;24.80;45.80
14733;DHT22;7457;50.960;6.830;2023-07-16T13:34:38;24.60;46.40
14733;DHT22;7457;50.960;6.830;2023-07-16T13:37:04;24.50;47.10
14733;DHT22;7457;50.960;6.830;2023-07-16T13:39:29;24.60;47.40
14733;DHT22;7457;50.960;6.830;2023-07-16T13:41:55;24.70;46.90
14733;DHT22;7457;50.960;6.830;2023-07-16T13:44:21;24.80;46.60
14733;DHT22;7457;50.960;6.830;2023-07-16T13:46:47;24.90;46.50
14733;DHT22;7457;50.960;6.830;2023-07-16T13:49:12;25.00;46.40
14733;DHT22;7457;50.960;6.830;2023-07-16T13:51:39;25.00;45.40
14733;DHT22;7457;50.960;6.830;2023-07-16T13:54:05;25.00;45.50
14733;DHT22;7457;50.960;6.830;2023-07-16T13:56:30;25.00;45.90
14733;DHT22;7457;50.960;6.830;2023-07-16T13:58:56;25.00;46.10
14733;DHT22;7457;50.960;6.830;2023-07-16T14:01:22;25.00;46.00
14733;DHT22;7457;50.960;6.830;2023-07-16T14:03:48;25.00;45.30
14733;DHT22;7457;50.960;6.830;2023-07-16T14:06:14;24.80;45.40
14733;DHT22;7457;50.960;6.830;2023-07-16T14:08:40;24.60;46.20
14733;DHT22;7457;50.960;6.830;2023-07-16T14:11:05;24.50;46.40
14733;DHT22;7457;50.960;6.830;2023-07-16T14:13:31;24.50;46.40
14733;DHT22;7457;50.960;6.830;2023-07-16T14:15:57;24.50;46.80
14733;DHT22;7457;50.960;6.830;2023-07-16T14:18:22;24.50;46.70
14733;DHT22;7457;50.960;6.830;2023-07-16T14:20:48;24.60;46.60
14733;DHT22;7457;50.960;6.830;2023-07-16T14:23:14;24.60;46.40
14733;DHT22;7457;50.960;6.830;2023-07-16T14:25:39;24.80;46.40
14733;DHT22;7457;50.960;6.830;2023-07-16T14:28:05;24.80;46.30
14733;DHT22;7457;50.960;6.830;2023-07-16T14:30:30;24.90;46.10
14733;DHT22;7457;50.960;6.830;2023-07-16T14:32:56;25.00;46.10
14733;DHT22;7457;50.960;6.830;2023-07-16T14:35:22;25.00;46.10
14733;DHT22;7457;50.960;6.830;2023-07-16T14:37:48;25.10;45.80
14733;DHT22;7457;50.960;6.830;2023-07-16T14:40:14;25.10;46.30
14733;DHT22;7457;50.960;6.830;2023-07-16T14:42:39;25.20;46.50
14733;DHT22;7457;50.960;6.830;2023-07-16T14:45:06;25.40;45.80
14733;DHT22;7457;50.960;6.830;2023-07-16T14:47:33;25.50;45.60
14733;DHT22;7457;50.960;6.830;2023-07-16T14:49:59;25.50;45.40
14733;DHT22;7457;50.960;6.830;2023-07-16T14:52:25;25.40;44.90
14733;DHT22;7457;50.960;6.830;2023-07-16T14:54:50;25.30;44.70
14733;DHT22;7457;50.960;6.830;2023-07-16T14:57:16;25.00;44.90
14733;DHT22;7457;50.960;6.830;2023-07-16T14:59:42;24.90;45.50
14733;DHT22;7457;50.960;6.830;2023-07-16T15:02:08;24.70;46.00
14733;DHT22;7457;50.960;6.830;2023-07-16T15:04:34;24.70;46.40
14733;DHT22;7457;50.960;6.830;2023-07-16T15:07:00;24.60;46.70
14733;DHT22;7457;50.960;6.830;2023-07-16T15:09:26;24.70;46.60
14733;DHT22;7457;50.960;6.830;2023-07-16T15:11:51;24.70;46.60
14733;DHT22;7457;50.960;6.830;2023-07-16T15:14:17;24.80;46.60
14733;DHT22;7457;50.960;6.830;2023-07-16T15:16:43;24.90;46.60
14733;DHT22;7457;50.960;6.830;2023-07-16T15:19:09;25.00;46.20
14733;DHT22;7457;50.960;6.830;2023-07-16T15:21:35;25.10;46.10
14733;DHT22;7457;50.960;6.830;2023-07-16T15:24:04;25.20;45.50
14733;DHT22;7457;50.960;6.830;2023-07-16T15:26:30;25.10;45.50
14733;DHT22;7457;50.960;6.830;2023-07-16T15:28:57;25.10;45.50
14733;DHT22;7457;50.960;6.830;2023-07-16T15:31:22;25.00;45.50
14733;DHT22;7457;50.960;6.830;2023-07-16T15:33:54;24.80;45.30
14733;DHT22;7457;50.960;6.830;2023-07-16T15:36:20;24.70;45.50
14733;DHT22;7457;50.960;6.830;2023-07-16T15:38:46;24.60;46.00
14733;DHT22;7457;50.960;6.830;2023-07-16T15:41:12;24.60;46.60
14733;DHT22;7457;50.960;6.830;2023-07-16T15:43:40;24.60;46.60
14733;DHT22;7457;50.960;6.830;2023-07-16T15:46:05;24.70;46.60
14733;DHT22;7457;50.960;6.830;2023-07-16T15:48:31;24.70;46.00
14733;DHT22;7457;50.960;6.830;2023-07-16T15:50:57;24.70;45.90
14733;DHT22;7457;50.960;6.830;2023-07-16T15:53:26;24.70;45.90
14733;DHT22;7457;50.960;6.830;2023-07-16T15:55:53;24.60;46.10
14733;DHT22;7457;50.960;6.830;2023-07-16T15:58:19;24.50;46.10
14733;DHT22;7457;50.960;6.830;2023-07-16T16:00:45;24.40;46.50